San Luis Valley Regional Bergman Field
KALS : now visible

Airfield :











YOU CAN JOIN US ON...

 
LOGIN :

Register | Disclaimer

   EN    FR    IT 

 









Legend :    VFR   Marginal VFR   IFR   Intensive IFR   Very Intensive IFR
Visi :
Ceiling :
>= 8 km
>= 3000ft
5 to 8 km
1000 to 3000 ft
1500m to 5 km
500 to 1000 ft
800 to 1500m
200 to 500 ft
< 800m
< 200 ft
Symbols :   Thunderstorms  Fog  Heavy snow  Heavy precipitations  Wind > 20 kt






- Airport Elevation : 7539 ft


KALS - San Luis Valley Regional Bergman Field

CURRENT METAR :
  • 170252Z AUTO 11017G25KT 10SM CLR 14/03 A2999 RMK AO2 PK WND 12033/0237 SLP072 T01440033 53009

EXPIRED METARs :
  • 170152Z AUTO 10012G21KT 10SM CLR 17/01 A2997 RMK AO2 PK WND 09026/0111 SLP062 T01670011
  • 170052Z AUTO 10019G25KT 10SM CLR 19/01 A2995 RMK AO2 PK WND 12026/0017 SLP056 T01890006

TAF KALS
Valid from the 17 at 00:00 until the 18 at 00:00 UTC


162344Z 1700/1724 22010G20KT P6SM SCT250
FM170300 10008KT P6SM FEW060 BKN120 BKN250
FM171200 VRB04KT P6SM SCT120 BKN250
FM171800 19012G22KT P6SM VCTS BKN050CB BKN100 BKN250
KZDV FIR / North America



MET'MAP, your aeronautical weather chart ! - Copyright ORBIFLY December 2007 - Disclaimer

ORBIFLY MET'MAP TEAM :

Programming & Development : Alexandra Zaïnal
Concept & original design : Baudouin d'Aumeries
Assistance for programming : Marc-Olivier Méhu
Technical & hardware support : Manuel Goepfert

Contact : metmap@orbifly.com




SOURCES & CREDITS :

   NOAA       Earth
Advisory